sensor_id;sensor_type;location;lat;lon;timestamp;pressure;altitude;pressure_sealevel;temperature;humidity
68137;BME280;54939;50.826;9.030;2022-08-11T00:00:36;99259.16;;;28.25;32.23
68137;BME280;54939;50.826;9.030;2022-08-11T00:01:08;99260.25;;;28.24;32.50
68137;BME280;54939;50.826;9.030;2022-08-11T00:01:43;99259.16;;;28.25;32.33
68137;BME280;54939;50.826;9.030;2022-08-11T00:02:14;99261.06;;;28.24;32.37
68137;BME280;54939;50.826;9.030;2022-08-11T00:02:51;99261.91;;;28.25;32.54
68137;BME280;54939;50.826;9.030;2022-08-11T00:03:23;99260.25;;;28.24;32.69
68137;BME280;54939;50.826;9.030;2022-08-11T00:04:01;99250.91;;;28.25;32.48
68137;BME280;54939;50.826;9.030;2022-08-11T00:04:33;99264.66;;;28.25;32.65
68137;BME280;54939;50.826;9.030;2022-08-11T00:05:09;99255.59;;;28.24;32.37
68137;BME280;54939;50.826;9.030;2022-08-11T00:05:46;99264.66;;;28.25;32.31
68137;BME280;54939;50.826;9.030;2022-08-11T00:06:28;99261.91;;;28.25;32.68
68137;BME280;54939;50.826;9.030;2022-08-11T00:06:59;99254.75;;;28.24;32.40
68137;BME280;54939;50.826;9.030;2022-08-11T00:07:31;99263.81;;;28.24;32.57
68137;BME280;54939;50.826;9.030;2022-08-11T00:08:01;99256.16;;;28.26;32.38
68137;BME280;54939;50.826;9.030;2022-08-11T00:08:31;99262.50;;;28.27;32.03
68137;BME280;54939;50.826;9.030;2022-08-11T00:09:03;99259.75;;;28.27;32.14
68137;BME280;54939;50.826;9.030;2022-08-11T00:09:35;99261.66;;;28.26;32.38
68137;BME280;54939;50.826;9.030;2022-08-11T00:10:08;99266.06;;;28.27;32.31
68137;BME280;54939;50.826;9.030;2022-08-11T00:10:39;99261.41;;;28.28;32.21
68137;BME280;54939;50.826;9.030;2022-08-11T00:11:09;99254.25;;;28.27;32.36
68137;BME280;54939;50.826;9.030;2022-08-11T00:11:43;99259.75;;;28.27;32.60
68137;BME280;54939;50.826;9.030;2022-08-11T00:12:14;99258.91;;;28.26;32.53
68137;BME280;54939;50.826;9.030;2022-08-11T00:12:54;99264.41;;;28.26;32.33
68137;BME280;54939;50.826;9.030;2022-08-11T00:13:36;99259.75;;;28.27;32.41
68137;BME280;54939;50.826;9.030;2022-08-11T00:14:15;99261.66;;;28.26;32.36
68137;BME280;54939;50.826;9.030;2022-08-11T00:14:47;99263.31;;;28.27;31.94
68137;BME280;54939;50.826;9.030;2022-08-11T00:15:24;99263.31;;;28.27;32.50
68137;BME280;54939;50.826;9.030;2022-08-11T00:15:55;99255.91;;;28.28;32.23
68137;BME280;54939;50.826;9.030;2022-08-11T00:16:25;99259.75;;;28.27;31.85
68137;BME280;54939;50.826;9.030;2022-08-11T00:16:57;99265.25;;;28.27;32.38
68137;BME280;54939;50.826;9.030;2022-08-11T00:17:29;99259.75;;;28.27;32.36
68137;BME280;54939;50.826;9.030;2022-08-11T00:18:00;99262.50;;;28.27;32.20
68137;BME280;54939;50.826;9.030;2022-08-11T00:18:38;99255.91;;;28.28;32.15
68137;BME280;54939;50.826;9.030;2022-08-11T00:19:10;99266.06;;;28.27;32.21
68137;BME280;54939;50.826;9.030;2022-08-11T00:19:41;99263.31;;;28.27;32.27
68137;BME280;54939;50.826;9.030;2022-08-11T00:20:13;99255.91;;;28.28;32.24
68137;BME280;54939;50.826;9.030;2022-08-11T00:20:43;99265.00;;;28.28;32.48
68137;BME280;54939;50.826;9.030;2022-08-11T00:21:14;99266.91;;;28.28;32.49
68137;BME280;54939;50.826;9.030;2022-08-11T00:21:45;99263.31;;;28.27;32.40
68137;BME280;54939;50.826;9.030;2022-08-11T00:22:19;99260.56;;;28.27;32.66
68137;BME280;54939;50.826;9.030;2022-08-11T00:22:50;99260.56;;;28.27;32.10
68137;BME280;54939;50.826;9.030;2022-08-11T00:23:20;99262.50;;;28.27;32.30
68137;BME280;54939;50.826;9.030;2022-08-11T00:23:54;99261.66;;;28.26;32.23
68137;BME280;54939;50.826;9.030;2022-08-11T00:24:32;99267.72;;;28.28;32.28
68137;BME280;54939;50.826;9.030;2022-08-11T00:25:09;99266.91;;;28.28;32.34
68137;BME280;54939;50.826;9.030;2022-08-11T00:25:41;99267.72;;;28.28;31.92
68137;BME280;54939;50.826;9.030;2022-08-11T00:26:13;99268.53;;;28.29;31.98
68137;BME280;54939;50.826;9.030;2022-08-11T00:26:48;99266.91;;;28.28;32.25
68137;BME280;54939;50.826;9.030;2022-08-11T00:27:18;99265.78;;;28.29;32.30
68137;BME280;54939;50.826;9.030;2022-08-11T00:27:48;99267.47;;;28.30;32.45
68137;BME280;54939;50.826;9.030;2022-08-11T00:28:31;99265.78;;;28.29;32.00
68137;BME280;54939;50.826;9.030;2022-08-11T00:29:09;99262.25;;;28.28;32.53
68137;BME280;54939;50.826;9.030;2022-08-11T00:29:39;99263.88;;;28.29;32.37
68137;BME280;54939;50.826;9.030;2022-08-11T00:30:10;99265.00;;;28.28;32.35
68137;BME280;54939;50.826;9.030;2022-08-11T00:30:42;99259.50;;;28.28;32.34
68137;BME280;54939;50.826;9.030;2022-08-11T00:31:59;99260.56;;;28.27;32.37
68137;BME280;54939;50.826;9.030;2022-08-11T00:32:30;99259.75;;;28.27;32.68
68137;BME280;54939;50.826;9.030;2022-08-11T00:33:01;99262.50;;;28.27;32.47
68137;BME280;54939;50.826;9.030;2022-08-11T00:33:32;99266.91;;;28.28;32.44
68137;BME280;54939;50.826;9.030;2022-08-11T00:34:05;99263.31;;;28.27;32.55
68137;BME280;54939;50.826;9.030;2022-08-11T00:34:39;99261.13;;;28.29;32.31
68137;BME280;54939;50.826;9.030;2022-08-11T00:35:14;99262.25;;;28.28;32.00
68137;BME280;54939;50.826;9.030;2022-08-11T00:35:46;99260.28;;;28.29;32.13
68137;BME280;54939;50.826;9.030;2022-08-11T00:36:18;99269.38;;;28.29;31.88
68137;BME280;54939;50.826;9.030;2022-08-11T00:36:50;99270.47;;;28.28;32.20
68137;BME280;54939;50.826;9.030;2022-08-11T00:37:21;99270.47;;;28.28;32.25
68137;BME280;54939;50.826;9.030;2022-08-11T00:37:52;99270.47;;;28.28;32.33
68137;BME280;54939;50.826;9.030;2022-08-11T00:38:24;99263.03;;;28.29;31.78
68137;BME280;54939;50.826;9.030;2022-08-11T00:38:56;99268.81;;;28.27;32.24
68137;BME280;54939;50.826;9.030;2022-08-11T00:39:33;99273.47;;;28.27;32.32
68137;BME280;54939;50.826;9.030;2022-08-11T00:40:04;99267.16;;;28.26;32.52
68137;BME280;54939;50.826;9.030;2022-08-11T00:40:41;99266.91;;;28.28;32.24
68137;BME280;54939;50.826;9.030;2022-08-11T00:41:58;99266.06;;;28.27;32.49
68137;BME280;54939;50.826;9.030;2022-08-11T00:44:03;99273.78;;;28.30;31.95
68137;BME280;54939;50.826;9.030;2022-08-11T00:44:41;99267.72;;;28.28;32.30
68137;BME280;54939;50.826;9.030;2022-08-11T00:45:21;99265.78;;;28.29;32.32
68137;BME280;54939;50.826;9.030;2022-08-11T00:46:01;99269.38;;;28.29;32.26
68137;BME280;54939;50.826;9.030;2022-08-11T00:47:33;99263.03;;;28.29;32.33
68137;BME280;54939;50.826;9.030;2022-08-11T00:48:14;99256.75;;;28.28;32.12
68137;BME280;54939;50.826;9.030;2022-08-11T00:51:58;99262.25;;;28.28;32.20
68137;BME280;54939;50.826;9.030;2022-08-11T00:54:02;99269.06;;;28.26;32.34
68137;BME280;54939;50.826;9.030;2022-08-11T00:55:30;99258.91;;;28.26;32.46
68137;BME280;54939;50.826;9.030;2022-08-11T01:02:11;99262.50;;;28.27;31.73
68137;BME280;54939;50.826;9.030;2022-08-11T01:03:26;99262.75;;;28.25;32.35
68137;BME280;54939;50.826;9.030;2022-08-11T01:04:44;99258.91;;;28.26;31.16
68137;BME280;54939;50.826;9.030;2022-08-11T01:06:58;99260.56;;;28.27;32.26
68137;BME280;54939;50.826;9.030;2022-08-11T01:09:58;99258.91;;;28.26;31.09
68137;BME280;54939;50.826;9.030;2022-08-11T01:12:38;99258.31;;;28.24;32.08
68137;BME280;54939;50.826;9.030;2022-08-11T01:16:29;99256.41;;;28.25;31.92
68137;BME280;54939;50.826;9.030;2022-08-11T01:17:08;99258.06;;;28.26;30.82
68137;BME280;54939;50.826;9.030;2022-08-11T01:19:04;99257.50;;;28.24;31.04
68137;BME280;54939;50.826;9.030;2022-08-11T01:20:03;99252.00;;;28.24;31.82
68137;BME280;54939;50.826;9.030;2022-08-11T01:20:46;99253.66;;;28.25;30.90
68137;BME280;54939;50.826;9.030;2022-08-11T01:23:03;99262.75;;;28.25;31.53
68137;BME280;54939;50.826;9.030;2022-08-11T01:28:35;99258.56;;;28.23;31.17
68137;BME280;54939;50.826;9.030;2022-08-11T01:29:23;99259.66;;;28.21;31.72
68137;BME280;54939;50.826;9.030;2022-08-11T01:32:43;99257.19;;;28.20;31.30
68137;BME280;54939;50.826;9.030;2022-08-11T01:38:41;99256.91;;;28.21;31.32
68137;BME280;54939;50.826;9.030;2022-08-11T01:40:23;99256.34;;;28.19;30.77
68137;BME280;54939;50.826;9.030;2022-08-11T01:46:14;99258.28;;;28.19;31.18
68137;BME280;54939;50.826;9.030;2022-08-11T01:46:55;99260.78;;;28.20;31.25
68137;BME280;54939;50.826;9.030;2022-08-11T01:49:09;99267.34;;;28.19;31.38
68137;BME280;54939;50.826;9.030;2022-08-11T01:50:25;99267.34;;;28.19;31.76
68137;BME280;54939;50.826;9.030;2022-08-11T01:50:53;99258.28;;;28.19;32.09
68137;BME280;54939;50.826;9.030;2022-08-11T01:52:24;99261.03;;;28.19;31.32
68137;BME280;54939;50.826;9.030;2022-08-11T01:53:54;99264.34;;;28.21;31.49
68137;BME280;54939;50.826;9.030;2022-08-11T01:54:26;99265.44;;;28.20;31.71
68137;BME280;54939;50.826;9.030;2022-08-11T01:55:46;99258.03;;;28.20;31.54
68137;BME280;54939;50.826;9.030;2022-08-11T01:58:00;99259.09;;;28.19;31.95
68137;BME280;54939;50.826;9.030;2022-08-11T01:58:59;99262.69;;;28.20;32.25
68137;BME280;54939;50.826;9.030;2022-08-11T01:59:43;99263.50;;;28.20;32.29
68137;BME280;54939;50.826;9.030;2022-08-11T02:00:19;99267.09;;;28.21;31.18
68137;BME280;54939;50.826;9.030;2022-08-11T02:02:00;99266.81;;;28.23;31.78
68137;BME280;54939;50.826;9.030;2022-08-11T02:02:44;99265.44;;;28.20;31.18
68137;BME280;54939;50.826;9.030;2022-08-11T02:03:34;99263.50;;;28.20;31.77
68137;BME280;54939;50.826;9.030;2022-08-11T02:05:06;99267.34;;;28.19;31.83
68137;BME280;54939;50.826;9.030;2022-08-11T02:06:29;99261.03;;;28.19;32.36
68137;BME280;54939;50.826;9.030;2022-08-11T02:07:32;99272.00;;;28.19;32.28
68137;BME280;54939;50.826;9.030;2022-08-11T02:08:14;99266.50;;;28.19;32.06
68137;BME280;54939;50.826;9.030;2022-08-11T02:09:04;99264.84;;;28.18;31.22
68137;BME280;54939;50.826;9.030;2022-08-11T02:11:57;99270.59;;;28.16;32.43
68137;BME280;54939;50.826;9.030;2022-08-11T02:13:20;99268.66;;;28.17;31.58
68137;BME280;54939;50.826;9.030;2022-08-11T02:13:56;99273.06;;;28.18;32.33
68137;BME280;54939;50.826;9.030;2022-08-11T02:15:28;99264.25;;;28.16;30.95
68137;BME280;54939;50.826;9.030;2022-08-11T02:17:18;99272.50;;;28.16;31.37
68137;BME280;54939;50.826;9.030;2022-08-11T02:18:22;99265.69;;;28.18;32.05
68137;BME280;54939;50.826;9.030;2022-08-11T02:19:03;99265.69;;;28.18;31.79
68137;BME280;54939;50.826;9.030;2022-08-11T02:19:54;99268.41;;;28.18;30.84
68137;BME280;54939;50.826;9.030;2022-08-11T02:20:54;99260.19;;;28.18;31.40
68137;BME280;54939;50.826;9.030;2022-08-11T02:22:05;99266.75;;;28.17;30.73
68137;BME280;54939;50.826;9.030;2022-08-11T02:23:45;99265.69;;;28.18;31.42
68137;BME280;54939;50.826;9.030;2022-08-11T02:24:27;99259.34;;;28.18;31.38
68137;BME280;54939;50.826;9.030;2022-08-11T02:25:06;99273.06;;;28.18;30.84
68137;BME280;54939;50.826;9.030;2022-08-11T02:25:42;99264.25;;;28.16;31.14
68137;BME280;54939;50.826;9.030;2022-08-11T02:26:15;99261.50;;;28.16;31.25
68137;BME280;54939;50.826;9.030;2022-08-11T02:26:53;99264.25;;;28.16;31.82
68137;BME280;54939;50.826;9.030;2022-08-11T02:27:33;99265.94;;;28.17;31.78
68137;BME280;54939;50.826;9.030;2022-08-11T02:28:09;99262.94;;;28.18;31.74
68137;BME280;54939;50.826;9.030;2022-08-11T02:28:47;99270.34;;;28.18;32.16
68137;BME280;54939;50.826;9.030;2022-08-11T02:29:22;99260.19;;;28.18;31.39
68137;BME280;54939;50.826;9.030;2022-08-11T02:29:58;99267.59;;;28.18;31.34
68137;BME280;54939;50.826;9.030;2022-08-11T02:30:40;99261.50;;;28.16;31.13
68137;BME280;54939;50.826;9.030;2022-08-11T02:32:29;99271.41;;;28.17;32.02
68137;BME280;54939;50.826;9.030;2022-08-11T02:33:20;99269.75;;;28.16;31.88
68137;BME280;54939;50.826;9.030;2022-08-11T02:33:56;99262.34;;;28.16;31.37
68137;BME280;54939;50.826;9.030;2022-08-11T02:36:20;99268.34;;;28.13;32.43
68137;BME280;54939;50.826;9.030;2022-08-11T02:36:54;99265.84;;;28.12;31.49
68137;BME280;54939;50.826;9.030;2022-08-11T02:38:07;99263.09;;;28.12;31.96
68137;BME280;54939;50.826;9.030;2022-08-11T02:39:18;99262.00;;;28.13;32.09
68137;BME280;54939;50.826;9.030;2022-08-11T02:40:37;99267.50;;;28.13;31.36
68137;BME280;54939;50.826;9.030;2022-08-11T02:41:14;99271.91;;;28.14;32.22
68137;BME280;54939;50.826;9.030;2022-08-11T02:42:10;99263.66;;;28.14;32.16
68137;BME280;54939;50.826;9.030;2022-08-11T02:42:56;99257.59;;;28.12;31.22
68137;BME280;54939;50.826;9.030;2022-08-11T02:45:48;99263.09;;;28.12;31.85
68137;BME280;54939;50.826;9.030;2022-08-11T02:46:28;99264.16;;;28.11;31.04
68137;BME280;54939;50.826;9.030;2022-08-11T02:47:38;99257.59;;;28.12;31.68
68137;BME280;54939;50.826;9.030;2022-08-11T02:50:22;99262.00;;;28.13;31.77
68137;BME280;54939;50.826;9.030;2022-08-11T02:51:05;99267.75;;;28.11;31.87
68137;BME280;54939;50.826;9.030;2022-08-11T02:51:41;99259.50;;;28.11;31.81
68137;BME280;54939;50.826;9.030;2022-08-11T02:52:29;99267.75;;;28.11;32.40
68137;BME280;54939;50.826;9.030;2022-08-11T02:53:16;99260.59;;;28.10;31.60
68137;BME280;54939;50.826;9.030;2022-08-11T02:54:44;99266.91;;;28.11;31.62
68137;BME280;54939;50.826;9.030;2022-08-11T02:55:22;99259.75;;;28.10;31.19
68137;BME280;54939;50.826;9.030;2022-08-11T02:56:50;99255.09;;;28.10;32.13
68137;BME280;54939;50.826;9.030;2022-08-11T02:57:26;99259.75;;;28.10;31.34
68137;BME280;54939;50.826;9.030;2022-08-11T02:58:10;99260.59;;;28.10;31.50
68137;BME280;54939;50.826;9.030;2022-08-11T02:58:54;99256.44;;;28.08;30.75
68137;BME280;54939;50.826;9.030;2022-08-11T03:00:20;99257.25;;;28.08;31.19
68137;BME280;54939;50.826;9.030;2022-08-11T03:00:54;99260.00;;;28.08;31.55
68137;BME280;54939;50.826;9.030;2022-08-11T03:01:31;99260.00;;;28.08;30.83
68137;BME280;54939;50.826;9.030;2022-08-11T03:03:12;99259.75;;;28.10;31.80
68137;BME280;54939;50.826;9.030;2022-08-11T03:03:52;99261.66;;;28.09;32.30
68137;BME280;54939;50.826;9.030;2022-08-11T03:04:45;99261.66;;;28.09;31.12
68137;BME280;54939;50.826;9.030;2022-08-11T03:05:22;99264.66;;;28.08;31.22
68137;BME280;54939;50.826;9.030;2022-08-11T03:06:06;99261.91;;;28.08;31.65
68137;BME280;54939;50.826;9.030;2022-08-11T03:09:13;99270.97;;;28.08;30.97
68137;BME280;54939;50.826;9.030;2022-08-11T03:09:49;99270.16;;;28.08;31.08
68137;BME280;54939;50.826;9.030;2022-08-11T03:10:24;99270.16;;;28.08;31.20
68137;BME280;54939;50.826;9.030;2022-08-11T03:11:10;99267.41;;;28.08;32.32
68137;BME280;54939;50.826;9.030;2022-08-11T03:12:02;99266.31;;;28.09;31.40
68137;BME280;54939;50.826;9.030;2022-08-11T03:13:16;99268.25;;;28.08;31.97
68137;BME280;54939;50.826;9.030;2022-08-11T03:15:55;99269.34;;;28.07;31.35
68137;BME280;54939;50.826;9.030;2022-08-11T03:16:51;99267.41;;;28.08;31.25
68137;BME280;54939;50.826;9.030;2022-08-11T03:17:27;99266.59;;;28.07;32.02
68137;BME280;54939;50.826;9.030;2022-08-11T03:20:05;99259.09;;;28.03;31.18
68137;BME280;54939;50.826;9.030;2022-08-11T03:20:41;99262.44;;;28.05;31.33
68137;BME280;54939;50.826;9.030;2022-08-11T03:21:20;99261.34;;;28.06;31.69
68137;BME280;54939;50.826;9.030;2022-08-11T03:23:36;99262.19;;;28.06;31.46
68137;BME280;54939;50.826;9.030;2022-08-11T03:24:17;99258.63;;;28.06;31.28
68137;BME280;54939;50.826;9.030;2022-08-11T03:24:53;99265.44;;;28.03;30.86
68137;BME280;54939;50.826;9.030;2022-08-11T03:25:48;99262.09;;;28.01;32.08
68137;BME280;54939;50.826;9.030;2022-08-11T03:26:32;99261.03;;;28.02;31.18
68137;BME280;54939;50.826;9.030;2022-08-11T03:27:10;99261.03;;;28.02;31.20
68137;BME280;54939;50.826;9.030;2022-08-11T03:28:00;99258.28;;;28.02;31.28
68137;BME280;54939;50.826;9.030;2022-08-11T03:28:42;99263.50;;;28.04;31.50
68137;BME280;54939;50.826;9.030;2022-08-11T03:30:11;99262.44;;;28.05;31.28
68137;BME280;54939;50.826;9.030;2022-08-11T03:30:47;99261.59;;;28.04;31.07
68137;BME280;54939;50.826;9.030;2022-08-11T03:31:27;99264.59;;;28.03;31.15
68137;BME280;54939;50.826;9.030;2022-08-11T03:32:04;99262.69;;;28.03;32.01
68137;BME280;54939;50.826;9.030;2022-08-11T03:34:32;99264.34;;;28.04;30.99
68137;BME280;54939;50.826;9.030;2022-08-11T03:35:07;99259.09;;;28.03;31.03
68137;BME280;54939;50.826;9.030;2022-08-11T03:35:40;99255.53;;;28.02;31.01
68137;BME280;54939;50.826;9.030;2022-08-11T03:38:14;99263.75;;;28.02;31.81
68137;BME280;54939;50.826;9.030;2022-08-11T03:39:28;99251.13;;;28.01;30.95
68137;BME280;54939;50.826;9.030;2022-08-11T03:41:13;99259.63;;;28.00;31.13
68137;BME280;54939;50.826;9.030;2022-08-11T03:45:42;99261.28;;;28.01;31.77
68137;BME280;54939;50.826;9.030;2022-08-11T03:47:21;99262.09;;;28.01;30.74
68137;BME280;54939;50.826;9.030;2022-08-11T03:49:33;99255.78;;;28.01;30.77
68137;BME280;54939;50.826;9.030;2022-08-11T03:51:00;99252.72;;;27.97;30.92
68137;BME280;54939;50.826;9.030;2022-08-11T03:51:41;99259.88;;;27.98;31.02
68137;BME280;54939;50.826;9.030;2022-08-11T03:57:19;99264.53;;;27.98;31.20
68137;BME280;54939;50.826;9.030;2022-08-11T04:00:28;99266.44;;;27.97;30.74
68137;BME280;54939;50.826;9.030;2022-08-11T04:01:53;99261.78;;;27.98;31.03
68137;BME280;54939;50.826;9.030;2022-08-11T04:03:26;99255.72;;;27.96;31.16
68137;BME280;54939;50.826;9.030;2022-08-11T04:05:48;99258.47;;;27.96;30.69
68137;BME280;54939;50.826;9.030;2022-08-11T04:08:24;99258.47;;;27.96;31.01
68137;BME280;54939;50.826;9.030;2022-08-11T04:12:09;99264.78;;;27.96;30.94
68137;BME280;54939;50.826;9.030;2022-08-11T04:15:02;99266.94;;;27.94;31.04
68137;BME280;54939;50.826;9.030;2022-08-11T04:16:53;99262.81;;;27.92;31.43
68137;BME280;54939;50.826;9.030;2022-08-11T04:18:31;99274.34;;;27.94;31.05
68137;BME280;54939;50.826;9.030;2022-08-11T04:19:29;99272.44;;;27.94;31.01
68137;BME280;54939;50.826;9.030;2022-08-11T04:20:15;99265.56;;;27.92;31.00
68137;BME280;54939;50.826;9.030;2022-08-11T04:23:13;99268.03;;;27.93;31.08
68137;BME280;54939;50.826;9.030;2022-08-11T04:24:49;99275.44;;;27.93;30.66
68137;BME280;54939;50.826;9.030;2022-08-11T04:25:28;99279.28;;;27.92;31.01
68137;BME280;54939;50.826;9.030;2022-08-11T04:31:32;99280.09;;;27.92;30.87
68137;BME280;54939;50.826;9.030;2022-08-11T04:37:48;99282.75;;;27.87;30.62
68137;BME280;54939;50.826;9.030;2022-08-11T04:40:48;99286.34;;;27.88;30.63
68137;BME280;54939;50.826;9.030;2022-08-11T04:42:46;99284.41;;;27.88;30.71
68137;BME280;54939;50.826;9.030;2022-08-11T04:44:43;99280.84;;;27.88;30.76
68137;BME280;54939;50.826;9.030;2022-08-11T04:45:34;99282.75;;;27.87;30.90
68137;BME280;54939;50.826;9.030;2022-08-11T04:46:14;99279.22;;;27.87;30.50
68137;BME280;54939;50.826;9.030;2022-08-11T04:46:56;99290.19;;;27.87;30.75
68137;BME280;54939;50.826;9.030;2022-08-11T04:48:56;99290.44;;;27.85;30.61
68137;BME280;54939;50.826;9.030;2022-08-11T04:50:09;99285.78;;;27.86;30.90
68137;BME280;54939;50.826;9.030;2022-08-11T04:52:06;99278.63;;;27.85;30.67
68137;BME280;54939;50.826;9.030;2022-08-11T04:56:27;99284.09;;;27.85;30.82
68137;BME280;54939;50.826;9.030;2022-08-11T04:57:21;99284.09;;;27.85;30.75
68137;BME280;54939;50.826;9.030;2022-08-11T05:00:11;99286.84;;;27.85;30.90
68137;BME280;54939;50.826;9.030;2022-08-11T05:01:16;99284.34;;;27.83;30.99
68137;BME280;54939;50.826;9.030;2022-08-11T05:02:25;99284.09;;;27.85;30.79
68137;BME280;54939;50.826;9.030;2022-08-11T05:07:03;99283.22;;;27.79;30.83
68137;BME280;54939;50.826;9.030;2022-08-11T05:09:39;99285.69;;;27.80;30.90
68137;BME280;54939;50.826;9.030;2022-08-11T05:12:55;99281.84;;;27.81;30.81
68137;BME280;54939;50.826;9.030;2022-08-11T05:13:49;99288.41;;;27.80;30.64
68137;BME280;54939;50.826;9.030;2022-08-11T05:14:50;99281.28;;;27.79;30.92
68137;BME280;54939;50.826;9.030;2022-08-11T05:15:50;99293.06;;;27.80;30.96
68137;BME280;54939;50.826;9.030;2022-08-11T05:16:55;99295.25;;;27.78;30.58
68137;BME280;54939;50.826;9.030;2022-08-11T05:17:59;99292.75;;;27.76;31.01
68137;BME280;54939;50.826;9.030;2022-08-11T05:18:51;99296.09;;;27.78;30.78
68137;BME280;54939;50.826;9.030;2022-08-11T05:19:44;99295.25;;;27.78;30.63
68137;BME280;54939;50.826;9.030;2022-08-11T05:20:33;99291.69;;;27.77;30.88
68137;BME280;54939;50.826;9.030;2022-08-11T05:21:28;99291.69;;;27.77;30.58
68137;BME280;54939;50.826;9.030;2022-08-11T05:22:20;99297.75;;;27.79;30.56
68137;BME280;54939;50.826;9.030;2022-08-11T05:23:12;99292.75;;;27.76;31.01
68137;BME280;54939;50.826;9.030;2022-08-11T05:25:11;99299.56;;;27.74;30.90
68137;BME280;54939;50.826;9.030;2022-08-11T05:26:00;99293.84;;;27.75;30.66
68137;BME280;54939;50.826;9.030;2022-08-11T05:26:50;99292.16;;;27.74;30.63
68137;BME280;54939;50.826;9.030;2022-08-11T05:28:55;99295.44;;;27.71;30.72
68137;BME280;54939;50.826;9.030;2022-08-11T05:30:07;99297.09;;;27.72;30.98
68137;BME280;54939;50.826;9.030;2022-08-11T05:30:59;99304.22;;;27.73;30.90
68137;BME280;54939;50.826;9.030;2022-08-11T05:31:50;99299.84;;;27.72;30.73
68137;BME280;54939;50.826;9.030;2022-08-11T05:32:44;99294.34;;;27.72;30.62
68137;BME280;54939;50.826;9.030;2022-08-11T05:34:43;99299.84;;;27.72;31.09
68137;BME280;54939;50.826;9.030;2022-08-11T05:35:35;99303.38;;;27.73;30.57
68137;BME280;54939;50.826;9.030;2022-08-11T05:36:10;99297.91;;;27.73;30.79
68137;BME280;54939;50.826;9.030;2022-08-11T05:36:48;99296.81;;;27.74;30.72
68137;BME280;54939;50.826;9.030;2022-08-11T05:37:21;99298.72;;;27.73;30.68
68137;BME280;54939;50.826;9.030;2022-08-11T05:37:52;99300.66;;;27.73;30.72
68137;BME280;54939;50.826;9.030;2022-08-11T05:38:48;99298.50;;;27.75;30.88
68137;BME280;54939;50.826;9.030;2022-08-11T05:39:43;99305.06;;;27.74;30.97
68137;BME280;54939;50.826;9.030;2022-08-11T05:40:32;99297.91;;;27.73;30.94
68137;BME280;54939;50.826;9.030;2022-08-11T05:41:21;99305.81;;;27.69;30.92
68137;BME280;54939;50.826;9.030;2022-08-11T05:42:11;99304.75;;;27.70;30.98
68137;BME280;54939;50.826;9.030;2022-08-11T05:43:03;99298.91;;;27.67;30.63
68137;BME280;54939;50.826;9.030;2022-08-11T05:43:54;99310.72;;;27.67;30.83
68137;BME280;54939;50.826;9.030;2022-08-11T05:44:45;99306.88;;;27.68;30.91
68137;BME280;54939;50.826;9.030;2022-08-11T05:45:35;99306.88;;;27.68;30.49
68137;BME280;54939;50.826;9.030;2022-08-11T05:46:26;99311.91;;;27.71;30.63
68137;BME280;54939;50.826;9.030;2022-08-11T05:47:22;99309.38;;;27.70;30.68
68137;BME280;54939;50.826;9.030;2022-08-11T05:48:12;99309.88;;;27.67;30.62
68137;BME280;54939;50.826;9.030;2022-08-11T05:49:01;99310.41;;;27.64;31.14
68137;BME280;54939;50.826;9.030;2022-08-11T05:49:50;99306.81;;;27.63;31.00
68137;BME280;54939;50.826;9.030;2022-08-11T05:50:40;99309.56;;;27.63;31.03
68137;BME280;54939;50.826;9.030;2022-08-11T05:51:34;99309.56;;;27.63;30.95
68137;BME280;54939;50.826;9.030;2022-08-11T05:52:27;99307.41;;;27.65;30.72
68137;BME280;54939;50.826;9.030;2022-08-11T05:53:17;99309.56;;;27.63;30.93
68137;BME280;54939;50.826;9.030;2022-08-11T05:54:07;99318.63;;;27.64;30.79
68137;BME280;54939;50.826;9.030;2022-08-11T05:54:59;99311.22;;;27.64;30.71
68137;BME280;54939;50.826;9.030;2022-08-11T05:55:49;99312.91;;;27.65;30.93
68137;BME280;54939;50.826;9.030;2022-08-11T05:56:43;99311.00;;;27.66;30.70
68137;BME280;54939;50.826;9.030;2022-08-11T05:57:23;99313.72;;;27.66;30.93
68137;BME280;54939;50.826;9.030;2022-08-11T05:57:58;99311.22;;;27.64;30.88
68137;BME280;54939;50.826;9.030;2022-08-11T05:58:37;99313.97;;;27.64;30.94
68137;BME280;54939;50.826;9.030;2022-08-11T05:59:13;99314.81;;;27.65;31.12
68137;BME280;54939;50.826;9.030;2022-08-11T05:59:45;99317.56;;;27.65;30.90
68137;BME280;54939;50.826;9.030;2022-08-11T06:00:15;99312.91;;;27.65;30.84
68137;BME280;54939;50.826;9.030;2022-08-11T06:00:46;99310.41;;;27.64;30.58
68137;BME280;54939;50.826;9.030;2022-08-11T06:01:20;99316.72;;;27.64;30.66
68137;BME280;54939;50.826;9.030;2022-08-11T06:01:51;99312.06;;;27.65;30.87
68137;BME280;54939;50.826;9.030;2022-08-11T06:02:22;99317.56;;;27.65;30.84
68137;BME280;54939;50.826;9.030;2022-08-11T06:02:53;99318.38;;;27.65;30.75
68137;BME280;54939;50.826;9.030;2022-08-11T06:03:25;99315.88;;;27.64;30.83
68137;BME280;54939;50.826;9.030;2022-08-11T06:03:57;99312.31;;;27.63;30.85
68137;BME280;54939;50.826;9.030;2022-08-11T06:04:43;99309.31;;;27.65;31.08
68137;BME280;54939;50.826;9.030;2022-08-11T06:05:13;99315.63;;;27.65;30.69
68137;BME280;54939;50.826;9.030;2022-08-11T06:05:45;99311.78;;;27.66;30.56
68137;BME280;54939;50.826;9.030;2022-08-11T06:06:15;99313.72;;;27.66;31.03
68137;BME280;54939;50.826;9.030;2022-08-11T06:07:04;99315.63;;;27.65;30.78
68137;BME280;54939;50.826;9.030;2022-08-11T06:07:37;99313.72;;;27.66;30.73
68137;BME280;54939;50.826;9.030;2022-08-11T06:08:08;99315.63;;;27.65;30.77
68137;BME280;54939;50.826;9.030;2022-08-11T06:08:38;99310.16;;;27.65;30.65
68137;BME280;54939;50.826;9.030;2022-08-11T06:09:09;99312.91;;;27.65;30.86
68137;BME280;54939;50.826;9.030;2022-08-11T06:10:13;99310.41;;;27.64;30.74
68137;BME280;54939;50.826;9.030;2022-08-11T06:10:58;99310.41;;;27.64;30.90
68137;BME280;54939;50.826;9.030;2022-08-11T06:11:28;99303.47;;;27.61;30.94
68137;BME280;54939;50.826;9.030;2022-08-11T06:12:02;99303.47;;;27.61;30.96
68137;BME280;54939;50.826;9.030;2022-08-11T06:12:33;99300.75;;;27.61;31.05